KRKW/RKW METAR and TAF weather

Enter ICAO airport designator
Station Type Date Time Source
KRKW METAR 2020/11/27 03:15 UTC NOAA

KRKW 270315Z AUTO 34003KT 10SM CLR 08/06 A3010 RMK A01


Station Type Date Time Source
KRKW Decoded METAR 2020/11/27 03:15 UTC NOAA

Station name not available
Nov 26, 2020 - 10:15 PM EST / 2020.11.27 0315 UTC
Wind: from the NNW (340 degrees) at 3 MPH (3 KT):0
Visibility: 10 mile(s):0
Sky conditions: clear
Temperature: 46 F (8 C)
Dew Point: 42 F (6 C)
Relative Humidity: 87%
Pressure (altimeter): 30.1 in. Hg (1019 hPa)
ob: KRKW 270315Z AUTO 34003KT 10SM CLR 08/06 A3010 RMK A01
cycle: 3

Station Type Date Time Source
KRKW TAF 2009/08/31 19:50 UTC NOAA

METAR KRKW 311950Z AUTO VRB05KT 10SM CLR 25/13 A3010
RMK AO1 T02500133 $

Example: see airport list